Time;durP1;ratioP1;P1;durP2;ratioP2;P2;SDS_P1;SDS_P2;PMS_P1;PMS_P2;Temp;Humidity;BMP_temperature;BMP_pressure;BME280_temperature;BME280_humidity;BME280_pressure;Samples;Min_cycle;Max_cycle;Signal;HPM_P1;HPM_P2
2023/05/12 00:02:03;;;;;;;8.00;5.83;;;11.40;99.90;;;;;;5031893;28;20222;-81
2023/05/12 00:04:30;;;;;;;7.03;5.40;;;11.40;99.90;;;;;;5020577;28;20225;-80
2023/05/12 00:06:57;;;;;;;6.70;5.70;;;11.40;99.90;;;;;;5043886;28;20346;-80
2023/05/12 00:09:26;;;;;;;7.07;5.00;;;11.50;99.90;;;;;;5040090;28;20956;-80
2023/05/12 00:11:53;;;;;;;6.00;5.40;;;11.50;99.90;;;;;;5045231;28;20216;-80
2023/05/12 00:14:20;;;;;;;5.77;5.17;;;11.50;99.90;;;;;;5045091;28;20249;-81
2023/05/12 00:16:50;;;;;;;7.30;4.70;;;11.60;99.90;;;;;;5028913;28;20219;-80
2023/05/12 00:19:17;;;;;;;5.13;4.40;;;11.70;99.90;;;;;;5046284;28;20288;-81
2023/05/12 00:21:44;;;;;;;6.13;4.30;;;11.70;99.90;;;;;;5043522;28;20230;-81
2023/05/12 00:24:10;;;;;;;6.83;4.47;;;11.70;99.90;;;;;;5045014;28;20215;-82
2023/05/12 00:26:39;;;;;;;8.03;4.27;;;11.80;99.90;;;;;;5048610;28;20258;-81
2023/05/12 00:29:05;;;;;;;6.03;4.20;;;11.80;99.90;;;;;;5040510;28;20426;-81
2023/05/12 00:31:32;;;;;;;5.17;4.10;;;11.90;99.90;;;;;;5036570;28;20950;-80
2023/05/12 00:33:59;;;;;;;5.97;3.70;;;11.90;99.90;;;;;;5044044;28;20212;-81
2023/05/12 00:36:26;;;;;;;5.80;3.70;;;12.00;99.90;;;;;;5048887;28;20646;-81
2023/05/12 00:38:55;;;;;;;3.93;3.33;;;12.00;99.90;;;;;;5043243;28;20233;-81
2023/05/12 00:41:21;;;;;;;4.13;3.70;;;12.10;99.90;;;;;;5024291;28;20216;-81
2023/05/12 00:43:49;;;;;;;4.50;3.60;;;12.20;99.90;;;;;;5037825;28;20524;-80
2023/05/12 00:46:17;;;;;;;3.67;3.30;;;12.20;99.90;;;;;;5043708;28;20322;-81
2023/05/12 00:48:44;;;;;;;4.07;3.67;;;12.30;99.90;;;;;;5029790;28;20223;-80
2023/05/12 00:51:12;;;;;;;5.00;3.50;;;12.30;99.90;;;;;;5052014;28;20226;-80
2023/05/12 00:53:40;;;;;;;4.63;3.70;;;12.40;99.90;;;;;;5050189;28;20227;-80
2023/05/12 00:56:08;;;;;;;7.50;4.13;;;12.50;99.90;;;;;;5043390;28;20229;-80
2023/05/12 00:58:35;;;;;;;5.37;3.60;;;12.50;99.90;;;;;;5045357;28;20222;-80
2023/05/12 01:01:03;;;;;;;4.73;3.00;;;12.60;99.90;;;;;;5047059;28;20319;-80
2023/05/12 01:03:30;;;;;;;5.33;3.47;;;12.60;99.90;;;;;;5045160;28;20223;-80
2023/05/12 01:06:06;;;;;;;4.57;3.47;;;12.60;99.90;;;;;;5031210;28;20223;-81
2023/05/12 01:08:35;;;;;;;4.63;3.50;;;12.70;99.90;;;;;;5038589;23;20250;-80
2023/05/12 01:11:02;;;;;;;3.47;3.10;;;12.70;99.90;;;;;;5046493;28;20316;-80
2023/05/12 01:13:29;;;;;;;6.43;3.30;;;12.80;99.90;;;;;;5027291;28;20296;-80
2023/05/12 01:16:00;;;;;;;4.13;3.40;;;12.80;99.90;;;;;;5028960;28;20218;-80
2023/05/12 01:18:29;;;;;;;3.73;3.20;;;12.80;99.90;;;;;;5024708;28;20530;-80
2023/05/12 01:20:56;;;;;;;4.87;3.43;;;12.80;99.90;;;;;;5027478;28;20231;-80
2023/05/12 01:23:31;;;;;;;4.43;3.13;;;12.90;99.90;;;;;;5050953;28;20247;-80
2023/05/12 01:26:03;;;;;;;6.60;3.43;;;12.90;99.90;;;;;;5027556;28;20229;-80
2023/05/12 01:28:30;;;;;;;4.60;3.23;;;12.90;99.90;;;;;;5044119;28;20249;-80
2023/05/12 01:30:58;;;;;;;3.93;3.63;;;13.00;99.90;;;;;;5040221;28;20227;-80
2023/05/12 01:33:24;;;;;;;4.70;3.40;;;13.00;99.90;;;;;;5024930;28;20237;-78
2023/05/12 01:35:51;;;;;;;4.00;3.43;;;13.00;99.90;;;;;;5042339;28;20223;-78
2023/05/12 01:38:18;;;;;;;4.57;3.60;;;13.00;99.90;;;;;;5040775;28;21050;-77
2023/05/12 01:40:46;;;;;;;4.13;3.73;;;13.10;99.90;;;;;;5024380;28;20655;-77
2023/05/12 01:43:15;;;;;;;3.70;3.37;;;13.10;99.90;;;;;;5040890;28;20312;-77
2023/05/12 01:45:42;;;;;;;7.17;3.13;;;13.10;99.90;;;;;;5037871;28;20308;-77
2023/05/12 01:48:09;;;;;;;4.67;3.80;;;13.10;99.90;;;;;;5020920;28;20781;-77
2023/05/12 01:50:36;;;;;;;6.23;3.50;;;13.10;99.90;;;;;;5023481;28;20856;-77
2023/05/12 01:53:06;;;;;;;4.83;3.50;;;13.10;99.90;;;;;;5021368;28;20295;-78
2023/05/12 01:55:33;;;;;;;4.67;3.80;;;13.20;99.90;;;;;;5042054;28;20218;-78
2023/05/12 01:58:00;;;;;;;4.40;2.90;;;13.20;99.90;;;;;;5026835;28;20328;-77
2023/05/12 02:00:28;;;;;;;3.93;3.63;;;13.20;99.90;;;;;;5034500;28;20277;-77
2023/05/12 02:02:57;;;;;;;4.57;3.67;;;13.20;99.90;;;;;;5024841;28;20824;-77
2023/05/12 02:05:24;;;;;;;3.67;3.37;;;13.20;99.90;;;;;;5029399;28;20232;-78
2023/05/12 02:07:52;;;;;;;4.73;3.50;;;13.20;99.90;;;;;;5025653;28;20228;-78
2023/05/12 02:10:19;;;;;;;4.43;3.60;;;13.20;99.90;;;;;;5028831;28;20454;-78
2023/05/12 02:12:46;;;;;;;4.80;3.63;;;13.20;99.90;;;;;;5024301;28;20246;-78
2023/05/12 02:15:13;;;;;;;4.67;3.10;;;13.20;99.90;;;;;;5022796;28;20297;-78
2023/05/12 02:17:49;;;;;;;4.30;3.53;;;13.20;99.90;;;;;;5043935;28;20237;-78
2023/05/12 02:20:17;;;;;;;4.63;3.37;;;13.30;99.90;;;;;;5024868;28;20222;-78
2023/05/12 02:22:44;;;;;;;4.47;3.50;;;13.30;99.90;;;;;;5023728;28;20246;-78
2023/05/12 02:25:11;;;;;;;7.40;3.20;;;13.30;99.90;;;;;;5022299;28;20231;-78
2023/05/12 02:27:37;;;;;;;3.70;3.30;;;13.30;99.90;;;;;;5033126;28;20228;-78
2023/05/12 02:30:06;;;;;;;6.07;3.60;;;13.30;99.90;;;;;;5033132;28;20224;-77
2023/05/12 02:32:33;;;;;;;5.77;3.53;;;13.30;99.90;;;;;;5039882;28;20212;-77
2023/05/12 02:35:01;;;;;;;6.33;3.50;;;13.30;99.90;;;;;;5040898;28;20233;-79
2023/05/12 02:37:29;;;;;;;6.47;4.03;;;13.30;99.90;;;;;;5032593;28;20230;-79
2023/05/12 02:39:56;;;;;;;3.80;3.40;;;13.30;99.90;;;;;;5025639;28;20230;-78
2023/05/12 02:42:27;;;;;;;3.70;3.30;;;13.40;99.90;;;;;;5023708;28;20907;-78
2023/05/12 02:44:54;;;;;;;5.00;3.50;;;13.40;99.90;;;;;;5045062;28;20293;-78
2023/05/12 02:47:21;;;;;;;4.63;3.40;;;13.40;99.90;;;;;;5023801;28;21674;-78
2023/05/12 02:49:48;;;;;;;5.63;3.20;;;13.40;99.90;;;;;;5026587;28;20850;-78
2023/05/12 02:52:16;;;;;;;7.03;3.60;;;13.40;99.90;;;;;;5043918;28;20234;-78
2023/05/12 02:54:43;;;;;;;4.50;3.50;;;13.40;99.90;;;;;;5026804;28;20316;-78
2023/05/12 02:57:10;;;;;;;3.83;3.53;;;13.40;99.90;;;;;;5039907;28;20709;-78
2023/05/12 02:59:37;;;;;;;3.93;3.40;;;13.40;99.90;;;;;;5029402;28;20253;-78
2023/05/12 03:02:04;;;;;;;5.70;3.50;;;13.40;99.90;;;;;;5020631;28;20235;-78
2023/05/12 03:04:31;;;;;;;4.10;3.30;;;13.40;99.90;;;;;;5021575;28;20216;-79
2023/05/12 03:06:58;;;;;;;3.87;3.40;;;13.40;99.90;;;;;;5022275;28;20223;-78
2023/05/12 03:09:26;;;;;;;4.23;3.30;;;13.40;99.90;;;;;;5022464;28;20964;-78
2023/05/12 03:11:53;;;;;;;6.80;3.73;;;13.40;99.90;;;;;;5028870;28;20273;-78
2023/05/12 03:14:20;;;;;;;5.83;3.67;;;13.40;99.90;;;;;;5053081;28;20224;-78
2023/05/12 03:16:46;;;;;;;4.90;3.63;;;13.40;99.90;;;;;;5028692;28;20216;-78
2023/05/12 03:19:14;;;;;;;5.80;3.40;;;13.40;99.90;;;;;;5019092;28;20246;-79
2023/05/12 03:21:41;;;;;;;4.73;3.90;;;13.40;99.90;;;;;;5037779;28;20226;-78
2023/05/12 03:24:08;;;;;;;4.20;3.80;;;13.40;99.90;;;;;;5025263;28;20936;-78
2023/05/12 03:26:37;;;;;;;3.73;3.27;;;13.40;99.90;;;;;;5038541;28;20241;-78
2023/05/12 03:29:03;;;;;;;6.77;3.47;;;13.40;99.90;;;;;;5037136;28;20239;-78
2023/05/12 03:31:30;;;;;;;5.27;3.70;;;13.50;99.90;;;;;;5022364;28;20250;-78
2023/05/12 03:33:57;;;;;;;3.60;3.30;;;13.40;99.90;;;;;;5018534;28;20640;-78
2023/05/12 03:36:24;;;;;;;7.30;4.07;;;13.40;99.90;;;;;;5025322;28;20719;-78
2023/05/12 03:38:51;;;;;;;5.67;3.83;;;13.40;99.90;;;;;;5022519;28;20222;-78
2023/05/12 03:41:18;;;;;;;5.83;3.97;;;13.40;99.90;;;;;;5047002;28;20230;-77
2023/05/12 03:43:46;;;;;;;4.73;3.80;;;13.40;99.90;;;;;;5041030;28;20334;-77
2023/05/12 03:46:12;;;;;;;5.27;3.93;;;13.40;99.90;;;;;;5023242;28;20304;-77
2023/05/12 03:48:39;;;;;;;5.23;3.93;;;13.40;99.90;;;;;;5039116;28;20234;-77
2023/05/12 03:51:06;;;;;;;4.33;3.93;;;13.40;99.90;;;;;;5020613;28;20221;-77
2023/05/12 03:53:33;;;;;;;4.00;3.60;;;13.40;99.90;;;;;;5040822;28;20301;-77
2023/05/12 03:56:04;;;;;;;4.43;4.00;;;13.40;99.90;;;;;;5038085;28;20239;-78
2023/05/12 03:58:30;;;;;;;5.47;3.90;;;13.40;99.90;;;;;;5036299;28;20345;-78
2023/05/12 04:01:00;;;;;;;4.67;3.70;;;13.40;99.90;;;;;;5019778;28;20281;-78
2023/05/12 04:03:27;;;;;;;4.10;3.80;;;13.40;99.90;;;;;;5032114;28;20723;-76
2023/05/12 04:05:58;;;;;;;4.40;4.00;;;13.40;99.90;;;;;;5025636;28;20304;-76
2023/05/12 04:08:25;;;;;;;6.97;3.83;;;13.40;99.90;;;;;;5043878;28;20237;-76
2023/05/12 04:10:54;;;;;;;4.27;3.73;;;13.40;99.90;;;;;;5041585;28;20222;-78
2023/05/12 04:13:21;;;;;;;4.47;3.73;;;13.40;99.90;;;;;;5038795;28;20777;-78
2023/05/12 04:15:49;;;;;;;4.20;3.80;;;13.40;99.90;;;;;;5039600;28;20224;-77
2023/05/12 04:18:17;;;;;;;5.43;4.20;;;13.40;99.90;;;;;;5039594;28;20430;-75
2023/05/12 04:20:44;;;;;;;9.23;4.33;;;13.50;99.90;;;;;;5039087;28;20213;-76
2023/05/12 04:23:11;;;;;;;4.10;3.70;;;13.50;99.90;;;;;;5047450;28;20229;-78
2023/05/12 04:25:39;;;;;;;5.47;3.90;;;13.50;99.90;;;;;;5040471;28;20705;-78
2023/05/12 04:28:05;;;;;;;5.03;4.07;;;13.50;99.90;;;;;;5029940;28;20224;-78
2023/05/12 04:30:32;;;;;;;4.40;4.00;;;13.50;99.90;;;;;;5021685;28;20441;-78
2023/05/12 04:33:00;;;;;;;5.53;4.10;;;13.50;99.90;;;;;;5025110;28;20734;-78
2023/05/12 04:35:28;;;;;;;4.50;3.63;;;13.60;99.90;;;;;;5019028;28;20249;-78
2023/05/12 04:37:55;;;;;;;5.53;3.90;;;13.60;99.90;;;;;;5042678;28;20230;-79
2023/05/12 04:40:22;;;;;;;5.33;3.80;;;13.60;99.90;;;;;;5046812;28;20226;-83
2023/05/12 04:42:50;;;;;;;6.33;4.20;;;13.70;99.90;;;;;;5038717;28;20221;-82
2023/05/12 04:45:17;;;;;;;5.03;4.00;;;13.70;99.90;;;;;;5027789;28;20230;-79
2023/05/12 04:47:44;;;;;;;4.93;4.20;;;13.80;99.90;;;;;;5044733;28;20226;-78
2023/05/12 04:50:12;;;;;;;6.37;4.07;;;13.80;99.90;;;;;;5039392;28;20229;-76
2023/05/12 04:52:40;;;;;;;8.27;4.17;;;13.90;99.90;;;;;;5040053;28;20844;-76
2023/05/12 04:55:08;;;;;;;7.43;4.27;;;13.90;99.90;;;;;;5043028;28;20634;-77
2023/05/12 04:57:35;;;;;;;4.10;3.70;;;13.90;99.90;;;;;;5046436;28;21055;-76
2023/05/12 05:00:04;;;;;;;5.37;4.20;;;14.00;99.90;;;;;;5025923;28;20725;-77
2023/05/12 05:02:31;;;;;;;6.17;3.70;;;14.00;99.90;;;;;;5057802;28;20623;-76
2023/05/12 05:04:58;;;;;;;4.23;3.83;;;14.00;99.90;;;;;;5057529;28;20232;-76
2023/05/12 05:07:25;;;;;;;5.50;4.23;;;14.10;99.90;;;;;;5025072;28;20230;-77
2023/05/12 05:09:53;;;;;;;5.23;3.87;;;14.10;99.90;;;;;;5056077;28;20213;-77
2023/05/12 05:12:20;;;;;;;5.17;4.10;;;14.10;99.90;;;;;;5026527;28;20237;-78
2023/05/12 05:14:48;;;;;;;5.87;3.80;;;14.20;99.90;;;;;;5010520;28;20236;-78
2023/05/12 05:17:14;;;;;;;5.53;4.17;;;14.20;99.90;;;;;;5029160;28;20237;-76
2023/05/12 05:19:41;;;;;;;5.50;4.10;;;14.30;99.90;;;;;;5026289;28;20584;-76
2023/05/12 05:22:08;;;;;;;4.87;3.80;;;14.30;99.90;;;;;;5041731;28;20214;-76
2023/05/12 05:24:35;;;;;;;6.37;4.07;;;14.40;99.90;;;;;;5026455;28;20762;-76
2023/05/12 05:27:04;;;;;;;4.93;4.20;;;14.40;99.90;;;;;;5022187;28;20721;-76
2023/05/12 05:29:31;;;;;;;4.53;3.63;;;14.50;99.90;;;;;;5045762;28;20233;-76
2023/05/12 05:31:58;;;;;;;4.20;3.80;;;14.50;99.90;;;;;;5038232;28;20248;-76
2023/05/12 05:34:25;;;;;;;4.87;3.70;;;14.70;99.90;;;;;;5021525;28;20251;-76
2023/05/12 05:36:52;;;;;;;7.10;3.77;;;14.70;99.90;;;;;;5025375;28;20800;-76
2023/05/12 05:39:18;;;;;;;6.23;4.10;;;14.80;99.90;;;;;;5048247;28;20643;-76
2023/05/12 05:41:46;;;;;;;7.27;4.30;;;14.90;99.90;;;;;;5032760;28;20771;-76
2023/05/12 05:44:15;;;;;;;6.93;4.13;;;15.00;99.90;;;;;;5040346;28;20317;-76
2023/05/12 05:46:42;;;;;;;4.37;3.97;;;15.10;99.90;;;;;;5045333;28;20224;-76
2023/05/12 05:49:08;;;;;;;6.87;4.00;;;15.20;99.90;;;;;;5022508;28;20220;-76
2023/05/12 05:51:35;;;;;;;6.50;3.87;;;15.30;99.90;;;;;;5032296;28;20597;-76
2023/05/12 05:54:02;;;;;;;5.10;3.90;;;15.40;99.90;;;;;;5043875;28;20435;-76
2023/05/12 05:56:30;;;;;;;3.93;3.53;;;15.60;99.90;;;;;;5024749;28;20231;-76
2023/05/12 05:59:01;;;;;;;4.40;4.00;;;15.70;99.90;;;;;;5049859;28;20257;-76
2023/05/12 06:01:29;;;;;;;6.60;4.23;;;15.80;99.90;;;;;;5025392;28;20309;-76
2023/05/12 06:03:56;;;;;;;4.27;3.87;;;16.00;99.90;;;;;;5032485;28;20227;-76
2023/05/12 06:06:22;;;;;;;5.00;3.87;;;16.10;99.90;;;;;;5039304;28;20224;-77
2023/05/12 06:08:49;;;;;;;5.53;3.80;;;16.20;99.70;;;;;;5027418;28;20232;-76
2023/05/12 06:11:16;;;;;;;6.13;4.10;;;16.30;99.50;;;;;;5025255;28;20234;-76
2023/05/12 06:13:42;;;;;;;6.07;4.00;;;16.40;99.60;;;;;;5027539;28;20723;-76
2023/05/12 06:16:09;;;;;;;6.60;3.97;;;16.50;99.10;;;;;;5023126;28;20761;-76
2023/05/12 06:18:37;;;;;;;7.07;4.20;;;16.60;99.10;;;;;;5028041;28;20221;-76
2023/05/12 06:21:04;;;;;;;5.93;4.20;;;16.70;98.60;;;;;;5043608;28;20223;-76
2023/05/12 06:23:30;;;;;;;5.83;4.00;;;16.80;98.60;;;;;;5019877;28;20218;-76
2023/05/12 06:25:57;;;;;;;6.77;4.20;;;16.90;98.50;;;;;;5039935;28;20235;-76
2023/05/12 06:28:24;;;;;;;5.07;3.93;;;17.00;98.60;;;;;;5022136;28;20227;-76
2023/05/12 06:30:51;;;;;;;6.83;3.77;;;17.10;98.20;;;;;;5024314;28;20234;-76
2023/05/12 06:33:18;;;;;;;4.40;3.40;;;17.30;98.10;;;;;;5029601;28;20262;-76
2023/05/12 06:35:46;;;;;;;7.97;3.80;;;17.40;98.00;;;;;;5043921;28;20232;-77
2023/05/12 06:38:13;;;;;;;4.00;3.30;;;17.50;97.80;;;;;;5044713;28;20227;-77
2023/05/12 06:40:39;;;;;;;5.80;3.53;;;17.70;97.90;;;;;;5022305;28;20308;-78
2023/05/12 06:43:06;;;;;;;4.67;3.30;;;17.90;97.60;;;;;;5026685;28;20232;-78
2023/05/12 06:45:35;;;;;;;6.23;3.93;;;18.00;97.60;;;;;;5051020;28;20216;-78
2023/05/12 06:48:04;;;;;;;4.70;3.47;;;18.20;97.30;;;;;;5045650;28;20224;-78
2023/05/12 06:50:31;;;;;;;5.75;3.55;;;18.40;96.80;;;;;;5047235;28;20231;-77
2023/05/12 06:52:59;;;;;;;5.07;3.80;;;18.60;96.60;;;;;;5033461;28;20233;-78
2023/05/12 06:55:26;;;;;;;4.35;3.53;;;18.70;96.10;;;;;;5046321;28;20235;-78
2023/05/12 06:57:54;;;;;;;5.88;3.58;;;18.90;96.30;;;;;;5026099;28;20498;-78
2023/05/12 07:00:22;;;;;;;5.70;3.67;;;19.10;96.20;;;;;;5039814;28;20330;-78
2023/05/12 07:02:48;;;;;;;4.40;3.50;;;19.40;95.90;;;;;;5041862;28;20231;-78
2023/05/12 07:05:15;;;;;;;4.22;3.50;;;19.70;95.90;;;;;;5045602;28;20223;-78
2023/05/12 07:07:42;;;;;;;4.97;3.63;;;20.00;95.30;;;;;;5040475;23;20214;-76
2023/05/12 07:10:11;;;;;;;4.43;3.30;;;20.30;94.00;;;;;;5027975;28;20215;-76
2023/05/12 07:12:38;;;;;;;4.00;3.60;;;20.70;93.60;;;;;;5043676;28;20234;-76
2023/05/12 07:15:05;;;;;;;4.07;3.30;;;21.00;93.00;;;;;;5043161;28;20227;-76
2023/05/12 07:17:32;;;;;;;5.82;3.72;;;21.30;92.50;;;;;;5044992;28;20222;-77
2023/05/12 07:19:59;;;;;;;5.05;3.72;;;21.50;91.90;;;;;;5042196;28;20224;-76
2023/05/12 07:22:25;;;;;;;5.43;3.58;;;21.60;91.30;;;;;;5041852;28;20220;-77
2023/05/12 07:24:52;;;;;;;4.57;3.05;;;21.70;91.10;;;;;;5044035;28;20224;-76
2023/05/12 07:27:20;;;;;;;4.80;3.53;;;21.70;90.90;;;;;;5024448;28;20392;-76
2023/05/12 07:29:47;;;;;;;5.00;3.70;;;21.70;89.90;;;;;;5047202;28;20609;-77
2023/05/12 07:32:14;;;;;;;5.60;3.50;;;21.70;90.30;;;;;;5042097;28;20315;-77
2023/05/12 07:34:40;;;;;;;4.75;3.90;;;21.80;90.10;;;;;;5040414;28;20232;-77
2023/05/12 07:37:07;;;;;;;4.40;3.28;;;21.80;90.20;;;;;;5045985;28;20702;-77
2023/05/12 07:39:34;;;;;;;5.38;3.47;;;22.10;90.40;;;;;;5044799;28;20219;-76
2023/05/12 07:42:01;;;;;;;5.53;3.53;;;22.40;90.80;;;;;;5023295;28;20235;-77
2023/05/12 07:44:29;;;;;;;3.95;3.55;;;22.80;90.60;;;;;;5054705;28;20226;-77
2023/05/12 07:46:56;;;;;;;7.72;3.63;;;23.20;89.80;;;;;;5047790;28;20717;-77
2023/05/12 07:49:23;;;;;;;6.15;3.28;;;23.60;88.40;;;;;;5065822;28;20575;-76
2023/05/12 07:51:49;;;;;;;5.25;3.03;;;24.00;87.50;;;;;;5066257;28;20797;-77
2023/05/12 07:54:16;;;;;;;5.60;3.53;;;24.30;87.80;;;;;;5065554;28;20238;-77
2023/05/12 07:56:43;;;;;;;5.70;3.38;;;24.70;86.10;;;;;;5065507;28;20759;-77
2023/05/12 07:59:10;;;;;;;7.38;3.70;;;25.10;85.80;;;;;;5047552;28;20246;-77
2023/05/12 08:01:38;;;;;;;4.65;3.38;;;25.50;82.80;;;;;;5065331;28;20223;-77
2023/05/12 08:04:06;;;;;;;4.50;3.28;;;25.80;80.40;;;;;;5065893;28;20230;-76
2023/05/12 08:06:33;;;;;;;3.90;3.55;;;26.00;78.80;;;;;;5066193;28;20280;-77
2023/05/12 08:09:00;;;;;;;6.10;3.30;;;26.10;77.00;;;;;;5066010;28;20233;-77
2023/05/12 08:11:26;;;;;;;4.03;3.60;;;26.00;75.80;;;;;;5064780;28;20219;-77
2023/05/12 08:13:53;;;;;;;3.70;3.33;;;25.90;75.40;;;;;;5065863;28;20231;-77
2023/05/12 08:16:20;;;;;;;7.05;3.53;;;25.80;76.50;;;;;;5064834;28;20897;-77
2023/05/12 08:18:48;;;;;;;5.28;2.92;;;25.70;77.10;;;;;;5066214;28;20231;-76
2023/05/12 08:21:15;;;;;;;3.58;2.80;;;25.80;77.40;;;;;;5065515;28;20235;-77
2023/05/12 08:23:41;;;;;;;3.67;3.28;;;26.10;78.60;;;;;;5066118;28;20641;-77
2023/05/12 08:26:08;;;;;;;4.35;3.13;;;26.50;77.40;;;;;;5064839;28;20231;-77
2023/05/12 08:28:35;;;;;;;5.00;3.20;;;26.90;75.10;;;;;;5047815;28;20223;-76
2023/05/12 08:31:02;;;;;;;3.85;3.05;;;27.20;74.00;;;;;;5065824;28;20227;-77
2023/05/12 08:33:29;;;;;;;4.55;3.38;;;27.50;72.50;;;;;;5065056;28;20238;-77
2023/05/12 08:35:57;;;;;;;4.32;3.00;;;27.90;72.30;;;;;;5065712;28;20215;-76
2023/05/12 08:38:24;;;;;;;5.25;2.88;;;28.20;69.70;;;;;;5046549;28;20239;-76
2023/05/12 08:41:05;;;;;;;4.35;3.17;;;28.60;69.30;;;;;;5065519;28;20211;-76
2023/05/12 08:43:37;;;;;;;5.90;3.15;;;29.00;67.70;;;;;;5065424;28;20219;-77
2023/05/12 08:46:05;;;;;;;4.72;3.20;;;29.40;66.90;;;;;;5064841;28;20277;-77
2023/05/12 08:48:34;;;;;;;5.13;3.40;;;29.80;66.00;;;;;;5057369;28;20319;-78
2023/05/12 08:51:03;;;;;;;4.82;3.00;;;30.20;64.00;;;;;;5033276;28;20229;-78
2023/05/12 08:53:30;;;;;;;5.20;3.20;;;30.50;62.70;;;;;;5035832;28;20236;-77
2023/05/12 08:56:00;;;;;;;4.20;3.00;;;30.70;61.30;;;;;;5045359;28;20314;-77
2023/05/12 08:58:27;;;;;;;4.40;2.95;;;30.80;60.50;;;;;;5043842;28;20297;-78
2023/05/12 09:00:54;;;;;;;4.05;2.83;;;31.00;59.30;;;;;;5046408;28;20227;-78
2023/05/12 09:03:23;;;;;;;4.20;2.80;;;31.10;58.00;;;;;;5046226;28;20224;-77
2023/05/12 09:05:50;;;;;;;5.30;3.00;;;31.30;57.20;;;;;;5039261;28;20220;-77
2023/05/12 09:08:18;;;;;;;8.40;3.20;;;31.60;57.40;;;;;;5046673;28;20736;-77
2023/05/12 09:10:44;;;;;;;4.30;2.95;;;31.80;56.10;;;;;;5053453;28;20234;-77
2023/05/12 09:13:16;;;;;;;5.20;2.92;;;32.10;55.40;;;;;;5049237;28;20220;-77
2023/05/12 09:15:45;;;;;;;4.80;2.90;;;32.40;54.60;;;;;;5032727;28;20232;-77
2023/05/12 09:18:12;;;;;;;4.72;3.10;;;32.70;53.00;;;;;;5058326;28;21149;-77
2023/05/12 09:20:38;;;;;;;4.13;2.92;;;32.80;52.80;;;;;;5048828;28;20220;-77
2023/05/12 09:23:15;;;;;;;4.70;3.10;;;32.80;51.90;;;;;;5049221;28;20224;-77
2023/05/12 09:25:43;;;;;;;6.85;3.10;;;32.70;49.60;;;;;;5032217;28;20230;-77
2023/05/12 09:28:10;;;;;;;5.68;2.97;;;32.70;49.90;;;;;;5055257;28;20228;-78
2023/05/12 09:30:40;;;;;;;6.65;3.20;;;32.50;49.70;;;;;;5048368;28;20216;-77
2023/05/12 09:33:08;;;;;;;7.30;3.17;;;32.40;50.10;;;;;;5048948;28;20220;-77
2023/05/12 09:35:40;;;;;;;4.22;3.03;;;32.30;50.20;;;;;;5031538;28;20216;-77
2023/05/12 09:38:08;;;;;;;4.32;3.05;;;32.20;49.10;;;;;;5058619;28;20232;-77
2023/05/12 09:40:35;;;;;;;3.65;2.97;;;32.00;49.90;;;;;;5048851;28;20251;-77
2023/05/12 09:43:03;;;;;;;3.30;3.00;;;31.90;49.50;;;;;;5049476;28;20315;-77
2023/05/12 09:45:34;;;;;;;3.85;2.65;;;31.70;48.00;;;;;;5031820;28;20612;-78
2023/05/12 09:48:08;;;;;;;5.97;2.72;;;31.60;47.70;;;;;;5052573;28;20959;-77
2023/05/12 09:50:35;;;;;;;6.78;2.95;;;31.50;48.80;;;;;;5048216;28;20231;-78
2023/05/12 09:53:02;;;;;;;5.78;3.00;;;31.40;49.00;;;;;;5031778;28;20224;-78
2023/05/12 09:55:31;;;;;;;6.03;3.10;;;31.50;49.00;;;;;;5048585;28;20227;-77
2023/05/12 09:58:00;;;;;;;4.65;3.00;;;31.60;48.40;;;;;;5048268;28;20378;-77
2023/05/12 10:00:29;;;;;;;4.30;2.80;;;31.70;48.00;;;;;;5055157;28;20224;-77
2023/05/12 10:02:56;;;;;;;3.75;2.78;;;31.90;48.50;;;;;;5048862;28;20592;-78
2023/05/12 10:05:23;;;;;;;4.28;3.20;;;32.10;48.70;;;;;;5057560;28;20228;-77
2023/05/12 10:07:51;;;;;;;4.97;2.90;;;32.30;48.10;;;;;;5048577;28;20275;-78
2023/05/12 10:10:23;;;;;;;7.60;3.13;;;32.40;46.80;;;;;;5049089;28;20235;-77
2023/05/12 10:12:50;;;;;;;3.67;3.00;;;32.20;46.00;;;;;;5049204;28;20228;-77
2023/05/12 10:15:17;;;;;;;5.28;2.55;;;31.90;44.60;;;;;;5047949;28;20219;-77
2023/05/12 10:17:46;;;;;;;4.75;2.92;;;31.40;44.70;;;;;;5052628;28;20236;-77
2023/05/12 10:20:14;;;;;;;5.05;2.67;;;30.70;44.30;;;;;;5056094;28;20242;-77
2023/05/12 10:22:40;;;;;;;4.68;2.65;;;30.20;44.60;;;;;;5040281;28;20220;-77
2023/05/12 10:25:08;;;;;;;4.78;2.40;;;29.70;44.60;;;;;;5055436;28;20230;-77
2023/05/12 10:27:36;;;;;;;3.65;2.40;;;29.40;43.90;;;;;;5047714;28;20228;-78
2023/05/12 10:30:04;;;;;;;7.80;2.65;;;29.10;45.70;;;;;;5046702;28;20232;-77
2023/05/12 10:32:30;;;;;;;4.95;2.80;;;29.00;44.90;;;;;;5028965;28;20239;-77
2023/05/12 10:35:08;;;;;;;4.10;2.70;;;28.90;45.10;;;;;;5046344;28;20220;-77
2023/05/12 10:37:36;;;;;;;4.05;2.90;;;28.80;44.50;;;;;;5032550;28;20246;-77
2023/05/12 10:40:05;;;;;;;3.78;3.00;;;28.60;44.80;;;;;;5049804;28;20239;-77
2023/05/12 10:42:38;;;;;;;5.63;2.58;;;28.50;45.60;;;;;;5049678;28;20227;-77
2023/05/12 10:45:16;;;;;;;6.35;2.30;;;28.50;45.80;;;;;;5025239;28;20631;-78
2023/05/12 10:47:43;;;;;;;4.53;2.72;;;28.60;44.90;;;;;;5044032;28;20637;-78
2023/05/12 10:50:12;;;;;;;5.95;2.58;;;28.70;44.60;;;;;;5045017;28;20237;-78
2023/05/12 10:52:39;;;;;;;3.70;2.30;;;28.60;44.50;;;;;;5049658;28;20230;-78
2023/05/12 10:55:12;;;;;;;4.18;2.40;;;28.50;44.70;;;;;;5045031;28;20220;-78
2023/05/12 10:57:49;;;;;;;2.92;2.20;;;28.50;44.60;;;;;;5043137;28;20282;-78
2023/05/12 11:00:16;;;;;;;4.05;2.70;;;28.40;44.60;;;;;;5042233;28;20755;-79
2023/05/12 11:02:49;;;;;;;4.75;2.60;;;28.40;44.30;;;;;;5039045;28;20231;-78
2023/05/12 11:05:17;;;;;;;6.57;2.88;;;28.40;44.10;;;;;;5047894;28;20216;-78
2023/05/12 11:07:48;;;;;;;4.25;2.92;;;28.40;45.60;;;;;;5044053;28;20227;-78
2023/05/12 11:10:15;;;;;;;3.97;2.75;;;28.50;47.00;;;;;;5041996;28;20278;-78
2023/05/12 11:12:43;;;;;;;3.95;2.90;;;28.60;46.40;;;;;;5042951;28;20709;-78
2023/05/12 11:15:12;;;;;;;4.38;3.30;;;28.70;46.10;;;;;;5043445;28;20286;-78
2023/05/12 11:17:40;;;;;;;4.93;2.90;;;28.80;46.10;;;;;;5042441;28;20224;-78
2023/05/12 11:20:09;;;;;;;3.92;2.83;;;28.80;45.80;;;;;;5042839;28;20228;-78
2023/05/12 11:22:40;;;;;;;3.55;2.47;;;28.70;46.00;;;;;;5046582;28;20226;-78
2023/05/12 11:25:11;;;;;;;3.20;2.90;;;28.70;45.30;;;;;;5022952;28;20233;-78
2023/05/12 11:27:42;;;;;;;6.30;3.08;;;28.70;45.30;;;;;;5029559;28;20228;-78
2023/05/12 11:30:09;;;;;;;4.80;2.58;;;28.60;45.80;;;;;;5021379;28;20228;-78
2023/05/12 11:32:36;;;;;;;4.70;2.70;;;28.50;45.30;;;;;;5043922;28;20683;-78
2023/05/12 11:35:11;;;;;;;3.15;2.40;;;28.50;45.50;;;;;;5041678;28;20368;-78
2023/05/12 11:37:40;;;;;;;4.35;2.80;;;28.60;44.50;;;;;;5043543;28;20215;-78
2023/05/12 11:40:14;;;;;;;8.15;3.00;;;28.60;44.90;;;;;;5048772;28;20220;-78
2023/05/12 11:42:44;;;;;;;5.38;2.35;;;28.70;44.40;;;;;;5048591;28;20323;-78
2023/05/12 11:45:21;;;;;;;4.38;2.90;;;28.90;45.90;;;;;;5044879;28;20226;-78
2023/05/12 11:47:47;;;;;;;4.00;2.65;;;29.10;46.10;;;;;;5043953;28;20215;-78
2023/05/12 11:50:21;;;;;;;4.43;2.60;;;29.40;46.10;;;;;;5042387;28;20219;-78
2023/05/12 11:52:50;;;;;;;2.70;2.42;;;29.60;45.00;;;;;;5047436;28;20243;-78
2023/05/12 11:55:22;;;;;;;4.03;2.58;;;29.80;44.60;;;;;;5024041;28;20710;-78
2023/05/12 11:57:58;;;;;;;3.42;2.40;;;29.90;44.40;;;;;;5041807;28;20220;-78
2023/05/12 12:00:33;;;;;;;3.22;2.50;;;29.80;43.70;;;;;;5041052;28;20234;-77
2023/05/12 12:03:13;;;;;;;5.38;2.90;;;29.70;42.50;;;;;;5040884;28;20219;-78
2023/05/12 12:05:44;;;;;;;3.53;2.50;;;29.60;43.50;;;;;;5041707;28;20215;-78
2023/05/12 12:08:13;;;;;;;5.07;2.90;;;29.40;41.80;;;;;;5023146;28;20236;-78
2023/05/12 12:10:43;;;;;;;3.25;2.40;;;29.10;41.60;;;;;;5031172;28;20314;-78
2023/05/12 12:13:09;;;;;;;4.68;2.58;;;29.00;42.40;;;;;;5043909;28;20234;-78
2023/05/12 12:15:36;;;;;;;4.38;2.70;;;28.70;43.00;;;;;;5046700;28;20216;-78
2023/05/12 12:18:03;;;;;;;3.40;2.50;;;28.50;42.80;;;;;;5046485;28;20239;-78
2023/05/12 12:20:29;;;;;;;3.13;2.45;;;28.50;43.80;;;;;;5043915;28;20224;-78
2023/05/12 12:22:56;;;;;;;6.45;2.75;;;28.50;43.00;;;;;;5042323;28;20246;-78
2023/05/12 12:25:24;;;;;;;6.03;2.95;;;28.50;43.80;;;;;;5028233;28;20235;-78
2023/05/12 12:27:51;;;;;;;3.38;2.80;;;28.50;43.70;;;;;;5047694;28;20586;-78
2023/05/12 12:30:19;;;;;;;3.88;2.47;;;28.50;44.00;;;;;;5045511;28;20220;-78
2023/05/12 12:32:46;;;;;;;6.53;2.63;;;28.50;44.00;;;;;;5029664;28;20544;-78
2023/05/12 12:35:13;;;;;;;4.00;2.70;;;28.50;43.60;;;;;;5043368;28;20236;-78
2023/05/12 12:37:40;;;;;;;4.75;2.78;;;28.50;43.50;;;;;;5041559;28;20246;-78
2023/05/12 12:40:08;;;;;;;3.10;2.80;;;28.50;44.30;;;;;;5025163;28;20262;-79
2023/05/12 12:42:38;;;;;;;3.10;2.55;;;28.50;44.00;;;;;;5045525;28;20230;-79
2023/05/12 12:45:07;;;;;;;4.53;2.67;;;28.50;43.60;;;;;;5048179;28;20791;-78
2023/05/12 12:47:34;;;;;;;6.10;2.63;;;28.50;44.50;;;;;;5028528;28;20243;-79
2023/05/12 12:50:00;;;;;;;3.92;2.90;;;28.70;44.10;;;;;;5043909;28;20844;-79
2023/05/12 12:52:27;;;;;;;3.75;2.60;;;28.70;44.40;;;;;;5024601;28;20224;-79